Time;durP1;ratioP1;P1;durP2;ratioP2;P2;SDS_P1;SDS_P2;PMS_P1;PMS_P2;Temp;Humidity;BMP_temperature;BMP_pressure;BME280_temperature;BME280_humidity;BME280_pressure;Samples;Min_cycle;Max_cycle;Signal;HPM_P1;HPM_P2
2022/08/09 03:02:38;;;;;;;;;;;29.00;35.60;;;;;;4949710;28;45560;-62
2022/08/09 03:05:05;;;;;;;;;;;29.00;35.60;;;;;;4947195;28;45496;-62
2022/08/09 03:07:30;;;;;;;;;;;29.00;35.70;;;;;;4945688;28;45743;-62
2022/08/09 03:09:56;;;;;;;;;;;29.00;35.70;;;;;;4955019;28;45907;-62
2022/08/09 03:12:21;;;;;;;;;;;29.00;35.70;;;;;;4954702;28;45336;-62
2022/08/09 03:14:47;;;;;;;;;;;29.00;35.70;;;;;;4967854;28;44857;-61
2022/08/09 03:17:12;;;;;;;;;;;29.00;35.70;;;;;;4943942;28;45644;-62
2022/08/09 03:19:38;;;;;;;;;;;28.90;35.60;;;;;;4948012;28;46187;-62
2022/08/09 03:22:03;;;;;;;;;;;28.90;35.70;;;;;;4966663;28;45342;-62
2022/08/09 03:24:29;;;;;;;;;;;28.90;35.70;;;;;;4942952;28;45045;-62
2022/08/09 03:26:54;;;;;;;;;;;28.90;35.60;;;;;;4931415;28;45784;-62
2022/08/09 03:29:20;;;;;;;;;;;28.90;35.70;;;;;;4967141;28;45492;-62
2022/08/09 03:31:45;;;;;;;;;;;28.90;35.70;;;;;;4953717;28;45018;-62
2022/08/09 03:34:11;;;;;;;;;;;28.90;35.70;;;;;;4946813;28;45291;-62
2022/08/09 03:36:36;;;;;;;;;;;28.90;35.70;;;;;;4961876;28;45532;-62
2022/08/09 03:39:02;;;;;;;;;;;28.90;35.70;;;;;;4946318;28;45321;-62
2022/08/09 03:41:28;;;;;;;;;;;28.90;35.70;;;;;;4961999;28;45158;-62
2022/08/09 03:43:53;;;;;;;;;;;28.90;35.70;;;;;;4940692;28;45311;-62
2022/08/09 03:46:19;;;;;;;;;;;28.90;35.70;;;;;;4946777;28;45603;-63
2022/08/09 03:48:44;;;;;;;;;;;28.90;35.70;;;;;;4954796;28;46766;-62
2022/08/09 03:51:10;;;;;;;;;;;28.90;35.70;;;;;;4943882;28;45219;-63
2022/08/09 03:53:36;;;;;;;;;;;28.90;35.70;;;;;;4963936;28;44743;-63
2022/08/09 03:56:02;;;;;;;;;;;28.90;35.80;;;;;;4953235;28;45650;-63
2022/08/09 03:58:27;;;;;;;;;;;28.90;35.80;;;;;;4958329;28;46005;-62
2022/08/09 04:00:53;;;;;;;;;;;28.80;35.70;;;;;;4941467;28;46442;-64
2022/08/09 04:03:18;;;;;;;;;;;28.80;35.70;;;;;;4935639;28;45281;-63
2022/08/09 04:05:44;;;;;;;;;;;28.80;35.70;;;;;;4935734;28;45440;-63
2022/08/09 04:08:09;;;;;;;;;;;28.80;35.70;;;;;;4937548;28;45729;-63
2022/08/09 04:10:35;;;;;;;;;;;28.80;35.70;;;;;;4937324;28;45525;-63
2022/08/09 04:13:08;;;;;;;;;;;28.80;35.80;;;;;;4935088;28;45187;-63
2022/08/09 04:15:33;;;;;;;;;;;28.80;35.70;;;;;;4940417;28;45454;-63
2022/08/09 04:17:59;;;;;;;;;;;28.80;35.80;;;;;;4939310;28;46402;-63
2022/08/09 04:20:24;;;;;;;;;;;28.80;35.80;;;;;;4941397;28;45406;-63
2022/08/09 04:22:49;;;;;;;;;;;28.80;35.80;;;;;;4941292;28;45710;-63
2022/08/09 04:25:15;;;;;;;;;;;28.80;35.80;;;;;;4936930;28;45227;-63
2022/08/09 04:27:40;;;;;;;;;;;28.80;35.80;;;;;;4942774;28;46574;-62
2022/08/09 04:30:13;;;;;;;;;;;28.70;35.80;;;;;;4939454;28;45259;-63
2022/08/09 04:32:38;;;;;;;;;;;28.70;35.70;;;;;;4923049;28;45309;-63
2022/08/09 04:35:05;;;;;;;;;;;28.70;35.80;;;;;;4939153;28;45472;-63
2022/08/09 04:37:30;;;;;;;;;;;28.70;35.80;;;;;;4938395;28;46064;-63
2022/08/09 04:39:56;;;;;;;;;;;28.70;35.80;;;;;;4936867;28;45348;-63
2022/08/09 04:42:22;;;;;;;;;;;28.70;35.80;;;;;;4937127;28;45241;-62
2022/08/09 04:44:47;;;;;;;;;;;28.70;35.80;;;;;;4939882;28;45388;-63
2022/08/09 04:47:13;;;;;;;;;;;28.80;35.90;;;;;;4943111;28;45353;-63
2022/08/09 04:49:39;;;;;;;;;;;28.70;35.80;;;;;;4937067;28;45185;-63
2022/08/09 04:52:04;;;;;;;;;;;28.70;35.90;;;;;;4940020;28;45381;-63
2022/08/09 04:54:30;;;;;;;;;;;28.70;35.80;;;;;;4936496;28;45481;-63
2022/08/09 04:56:55;;;;;;;;;;;28.70;35.80;;;;;;4937277;28;47002;-63
2022/08/09 04:59:21;;;;;;;;;;;28.70;35.80;;;;;;4950992;28;45539;-63
2022/08/09 05:01:47;;;;;;;;;;;28.70;35.80;;;;;;4952649;28;45234;-63
2022/08/09 05:04:13;;;;;;;;;;;28.70;35.80;;;;;;4962480;28;46120;-63
2022/08/09 05:06:38;;;;;;;;;;;28.70;35.90;;;;;;4961935;28;46213;-62
2022/08/09 05:09:04;;;;;;;;;;;28.70;35.80;;;;;;4958117;28;45235;-63
2022/08/09 05:11:29;;;;;;;;;;;28.70;35.90;;;;;;4952596;28;45640;-63
2022/08/09 05:13:55;;;;;;;;;;;28.70;35.80;;;;;;4947676;28;45693;-63
2022/08/09 05:16:20;;;;;;;;;;;28.70;35.80;;;;;;4966084;28;45264;-63
2022/08/09 05:18:46;;;;;;;;;;;28.70;35.90;;;;;;4938623;28;45509;-62
2022/08/09 05:21:11;;;;;;;;;;;28.70;35.90;;;;;;4966329;28;45582;-64
2022/08/09 05:23:37;;;;;;;;;;;28.70;35.90;;;;;;4958722;28;45793;-63
2022/08/09 05:26:02;;;;;;;;;;;28.70;35.80;;;;;;4937555;28;46180;-63
2022/08/09 05:28:28;;;;;;;;;;;29.60;34.70;;;;;;4947650;28;45443;-63
2022/08/09 05:30:53;;;;;;;;;;;30.50;33.30;;;;;;4956731;28;45423;-63
2022/08/09 05:33:19;;;;;;;;;;;31.10;32.30;;;;;;4959002;28;45540;-63
2022/08/09 05:35:44;;;;;;;;;;;31.50;31.80;;;;;;4950197;28;46216;-63
2022/08/09 05:38:10;;;;;;;;;;;31.60;31.40;;;;;;4931467;28;45501;-63
2022/08/09 05:40:35;;;;;;;;;;;31.50;31.50;;;;;;4966432;28;45235;-62
2022/08/09 05:43:01;;;;;;;;;;;30.80;32.40;;;;;;4945779;28;45601;-63
2022/08/09 05:45:28;;;;;;;;;;;30.20;33.30;;;;;;4956586;28;45353;-62
2022/08/09 05:47:54;;;;;;;;;;;29.70;34.00;;;;;;4964829;28;45414;-63
2022/08/09 05:50:22;;;;;;;;;;;29.50;34.50;;;;;;4946086;28;44974;-63
2022/08/09 05:52:48;;;;;;;;;;;29.30;34.90;;;;;;4960894;28;45172;-62
2022/08/09 05:55:13;;;;;;;;;;;29.20;35.10;;;;;;4957738;28;46026;-63
2022/08/09 05:57:39;;;;;;;;;;;29.10;35.30;;;;;;4946586;28;45327;-63
2022/08/09 06:00:06;;;;;;;;;;;29.00;35.30;;;;;;4959576;28;45571;-62
2022/08/09 06:02:32;;;;;;;;;;;29.00;35.50;;;;;;4939809;28;45451;-63
2022/08/09 06:04:57;;;;;;;;;;;29.00;35.50;;;;;;4935403;28;45286;-63
2022/08/09 06:07:23;;;;;;;;;;;29.00;35.60;;;;;;4930351;28;45040;-63
2022/08/09 06:09:49;;;;;;;;;;;29.00;35.60;;;;;;4937467;28;44911;-63
2022/08/09 06:12:14;;;;;;;;;;;29.00;35.70;;;;;;4920048;28;45340;-63
2022/08/09 06:14:39;;;;;;;;;;;29.00;35.60;;;;;;4936046;28;46243;-63
2022/08/09 06:17:05;;;;;;;;;;;29.00;35.60;;;;;;4935210;28;45257;-63
2022/08/09 06:19:30;;;;;;;;;;;29.00;35.60;;;;;;4937235;28;45529;-62
2022/08/09 06:21:56;;;;;;;;;;;29.10;35.50;;;;;;4921195;28;45562;-63
2022/08/09 06:24:21;;;;;;;;;;;29.10;35.50;;;;;;4928001;28;45215;-63
2022/08/09 06:26:47;;;;;;;;;;;29.20;35.40;;;;;;4938084;28;44947;-62
2022/08/09 06:29:12;;;;;;;;;;;29.30;35.30;;;;;;4939876;28;45272;-63
2022/08/09 06:31:38;;;;;;;;;;;29.30;35.10;;;;;;4939306;28;45217;-63
2022/08/09 06:34:04;;;;;;;;;;;29.40;35.00;;;;;;4929741;28;45287;-63
2022/08/09 06:36:29;;;;;;;;;;;29.40;34.90;;;;;;4937624;28;45130;-62
2022/08/09 06:38:55;;;;;;;;;;;29.50;34.90;;;;;;4947107;28;45391;-62
2022/08/09 06:41:20;;;;;;;;;;;29.50;34.90;;;;;;4908005;28;45957;-62
2022/08/09 06:43:46;;;;;;;;;;;29.50;35.00;;;;;;4933672;28;45347;-61
2022/08/09 06:46:12;;;;;;;;;;;29.40;34.90;;;;;;4935411;28;45269;-63
2022/08/09 06:48:39;;;;;;;;;;;29.50;35.10;;;;;;4943438;28;45181;-63
2022/08/09 06:51:05;;;;;;;;;;;29.50;35.00;;;;;;4923972;28;45468;-63
2022/08/09 06:53:30;;;;;;;;;;;29.50;35.10;;;;;;4940051;28;46968;-62
2022/08/09 06:55:58;;;;;;;;;;;29.50;35.00;;;;;;4924272;28;44948;-63
2022/08/09 06:58:23;;;;;;;;;;;29.50;35.00;;;;;;4939757;28;45042;-63
2022/08/09 07:00:48;;;;;;;;;;;29.60;35.00;;;;;;4925425;28;45224;-62
2022/08/09 07:03:14;;;;;;;;;;;29.50;34.80;;;;;;4964913;28;46158;-63
2022/08/09 07:05:39;;;;;;;;;;;29.60;34.90;;;;;;4960251;28;45105;-63
2022/08/09 07:08:05;;;;;;;;;;;29.60;34.80;;;;;;4944931;28;45003;-63
2022/08/09 07:10:31;;;;;;;;;;;29.60;34.80;;;;;;4961052;28;44928;-62
2022/08/09 07:12:57;;;;;;;;;;;29.60;34.70;;;;;;4942338;28;47128;-63
2022/08/09 07:15:22;;;;;;;;;;;29.60;34.70;;;;;;4942286;28;45218;-63
2022/08/09 07:17:48;;;;;;;;;;;29.60;34.70;;;;;;4956703;28;45078;-63
2022/08/09 07:20:14;;;;;;;;;;;29.60;34.70;;;;;;4961454;28;45472;-62
2022/08/09 07:22:40;;;;;;;;;;;29.60;34.80;;;;;;4957551;28;46337;-63
2022/08/09 07:25:05;;;;;;;;;;;29.60;34.80;;;;;;4946398;28;45380;-62
2022/08/09 07:27:31;;;;;;;;;;;29.60;34.90;;;;;;4961366;28;45268;-63
2022/08/09 07:29:56;;;;;;;;;;;29.60;34.90;;;;;;4958691;28;44851;-63
2022/08/09 07:32:22;;;;;;;;;;;29.60;34.90;;;;;;4961281;28;45591;-63
2022/08/09 07:34:47;;;;;;;;;;;29.60;35.00;;;;;;4957173;28;45228;-63
2022/08/09 07:37:13;;;;;;;;;;;29.60;34.90;;;;;;4959136;28;45025;-63
2022/08/09 07:39:38;;;;;;;;;;;29.60;34.90;;;;;;4945555;28;46052;-62
2022/08/09 07:42:04;;;;;;;;;;;29.60;34.90;;;;;;4946160;28;46170;-63
2022/08/09 07:44:30;;;;;;;;;;;29.60;34.90;;;;;;4962292;28;44966;-62
2022/08/09 07:46:55;;;;;;;;;;;29.70;34.90;;;;;;4954101;28;45430;-63
2022/08/09 07:49:20;;;;;;;;;;;29.70;34.90;;;;;;4958727;28;45499;-62
2022/08/09 07:51:46;;;;;;;;;;;29.70;34.80;;;;;;4957008;28;46685;-63
2022/08/09 07:54:11;;;;;;;;;;;29.70;34.80;;;;;;4966812;28;45200;-62
2022/08/09 07:56:37;;;;;;;;;;;29.80;34.90;;;;;;4942607;28;45551;-63
2022/08/09 07:59:03;;;;;;;;;;;29.80;34.90;;;;;;4939646;28;45817;-62
2022/08/09 08:01:28;;;;;;;;;;;29.80;34.80;;;;;;4918417;28;45014;-62
2022/08/09 08:03:54;;;;;;;;;;;29.80;34.80;;;;;;4938126;28;45044;-63
2022/08/09 08:06:19;;;;;;;;;;;29.80;34.80;;;;;;4941921;28;46213;-62
2022/08/09 08:08:45;;;;;;;;;;;29.80;34.80;;;;;;4930228;28;45651;-64
2022/08/09 08:11:10;;;;;;;;;;;29.80;34.80;;;;;;4929569;28;47014;-62
2022/08/09 08:13:36;;;;;;;;;;;29.80;34.80;;;;;;4920735;28;45254;-63
2022/08/09 08:16:01;;;;;;;;;;;29.80;34.80;;;;;;4936528;28;45567;-63
2022/08/09 08:18:27;;;;;;;;;;;29.80;34.70;;;;;;4937902;28;45463;-63
2022/08/09 08:20:52;;;;;;;;;;;29.90;34.80;;;;;;4943420;28;45387;-63
2022/08/09 08:23:19;;;;;;;;;;;29.90;34.80;;;;;;4926572;28;45179;-63
2022/08/09 08:25:45;;;;;;;;;;;29.90;34.70;;;;;;4937041;28;45364;-63
2022/08/09 08:28:10;;;;;;;;;;;29.90;34.70;;;;;;4939795;28;44883;-63
2022/08/09 08:30:36;;;;;;;;;;;29.90;34.60;;;;;;4927467;28;46019;-62
2022/08/09 08:33:01;;;;;;;;;;;29.90;34.70;;;;;;4938488;28;44654;-61
2022/08/09 08:35:27;;;;;;;;;;;30.00;34.70;;;;;;4931785;28;45508;-63
2022/08/09 08:37:55;;;;;;;;;;;30.00;34.70;;;;;;4946108;28;45588;-63
2022/08/09 08:40:20;;;;;;;;;;;30.00;34.70;;;;;;4938163;28;45325;-63
2022/08/09 08:42:46;;;;;;;;;;;30.00;34.60;;;;;;4927563;28;45270;-62
2022/08/09 08:45:12;;;;;;;;;;;30.00;34.60;;;;;;4937393;28;45068;-63
2022/08/09 08:47:39;;;;;;;;;;;30.00;34.50;;;;;;4942567;28;45039;-62
2022/08/09 08:50:04;;;;;;;;;;;30.10;34.60;;;;;;4918640;28;46272;-62
2022/08/09 08:52:30;;;;;;;;;;;30.10;34.60;;;;;;4925115;28;45501;-62
2022/08/09 08:54:56;;;;;;;;;;;30.10;34.50;;;;;;4929033;28;45196;-63
2022/08/09 08:57:22;;;;;;;;;;;30.10;34.50;;;;;;4937268;28;46031;-63
2022/08/09 08:59:47;;;;;;;;;;;30.10;34.50;;;;;;4929652;28;46012;-62
2022/08/09 09:02:16;;;;;;;;;;;30.10;34.50;;;;;;4955453;28;45344;-63
2022/08/09 09:04:42;;;;;;;;;;;30.10;34.50;;;;;;4945613;28;45405;-62
2022/08/09 09:07:08;;;;;;;;;;;30.20;34.50;;;;;;4957821;28;45431;-62
2022/08/09 09:09:34;;;;;;;;;;;30.20;34.50;;;;;;4947518;28;45830;-63
2022/08/09 09:11:59;;;;;;;;;;;30.20;34.40;;;;;;4968170;28;45316;-62
2022/08/09 09:14:25;;;;;;;;;;;30.20;34.40;;;;;;4960853;28;45208;-63
2022/08/09 09:16:51;;;;;;;;;;;30.20;34.40;;;;;;4962860;28;45537;-63
2022/08/09 09:19:16;;;;;;;;;;;30.20;34.30;;;;;;4950284;28;46208;-63
2022/08/09 09:21:55;;;;;;;;;;;30.20;34.30;;;;;;4955291;28;45250;-62
2022/08/09 09:24:21;;;;;;;;;;;30.20;34.20;;;;;;4955802;28;45229;-63
2022/08/09 09:26:53;;;;;;;;;;;30.20;34.10;;;;;;4939797;28;45707;-62
2022/08/09 09:29:26;;;;;;;;;;;30.20;34.20;;;;;;4961479;28;46377;-62
2022/08/09 09:31:51;;;;;;;;;;;30.20;34.10;;;;;;4935445;28;45604;-63
2022/08/09 09:34:17;;;;;;;;;;;30.20;34.20;;;;;;4951277;28;45423;-62
2022/08/09 09:36:42;;;;;;;;;;;30.30;34.20;;;;;;4960058;28;45714;-62
2022/08/09 09:39:08;;;;;;;;;;;30.30;34.20;;;;;;4957107;28;46828;-63
2022/08/09 09:41:34;;;;;;;;;;;30.30;34.20;;;;;;4962500;28;45341;-63
2022/08/09 09:44:00;;;;;;;;;;;30.30;34.70;;;;;;4946534;28;45487;-63
2022/08/09 09:46:26;;;;;;;;;;;30.30;34.10;;;;;;4952662;28;45672;-63
2022/08/09 09:48:55;;;;;;;;;;;30.30;34.10;;;;;;4955655;28;45341;-63
2022/08/09 09:51:21;;;;;;;;;;;30.30;34.10;;;;;;4947158;28;45539;-63
2022/08/09 09:53:46;;;;;;;;;;;30.30;34.10;;;;;;4957530;28;45238;-63
2022/08/09 09:56:12;;;;;;;;;;;30.30;34.10;;;;;;4942461;28;45754;-63
2022/08/09 09:58:44;;;;;;;;;;;30.30;34.10;;;;;;4961666;28;45413;-63
2022/08/09 10:01:19;;;;;;;;;;;30.40;34.10;;;;;;4960855;28;44859;-63
2022/08/09 10:03:45;;;;;;;;;;;30.40;34.10;;;;;;4968762;28;45444;-63
2022/08/09 10:06:11;;;;;;;;;;;30.40;34.10;;;;;;4961756;28;45576;-63
2022/08/09 10:08:36;;;;;;;;;;;30.40;34.10;;;;;;4961064;28;46057;-62
2022/08/09 10:11:14;;;;;;;;;;;30.40;34.10;;;;;;4963279;28;45255;-62
2022/08/09 10:13:40;;;;;;;;;;;30.40;34.10;;;;;;4961164;28;45436;-62
2022/08/09 10:16:05;;;;;;;;;;;30.40;34.10;;;;;;4957636;28;45436;-62
2022/08/09 10:18:31;;;;;;;;;;;30.40;34.00;;;;;;4934888;28;46133;-62
2022/08/09 10:21:09;;;;;;;;;;;30.40;34.00;;;;;;4967724;28;44701;-62
2022/08/09 10:23:35;;;;;;;;;;;30.40;34.00;;;;;;4954766;28;45363;-63
2022/08/09 10:26:01;;;;;;;;;;;30.50;34.10;;;;;;4955627;28;45228;-62
2022/08/09 10:28:31;;;;;;;;;;;30.40;33.90;;;;;;4926930;28;45596;-63
2022/08/09 10:30:56;;;;;;;;;;;30.50;34.00;;;;;;4968829;28;45245;-63
2022/08/09 10:33:22;;;;;;;;;;;30.50;34.00;;;;;;4968563;28;45069;-63
2022/08/09 10:35:48;;;;;;;;;;;30.40;33.90;;;;;;4970262;28;45284;-63
2022/08/09 10:38:13;;;;;;;;;;;30.50;34.00;;;;;;4956235;28;46056;-63
2022/08/09 10:40:39;;;;;;;;;;;30.50;34.00;;;;;;4968967;28;44657;-62
2022/08/09 10:43:04;;;;;;;;;;;30.50;34.00;;;;;;4948952;28;45249;-62
2022/08/09 10:45:30;;;;;;;;;;;30.50;34.00;;;;;;4953417;28;45182;-63
2022/08/09 10:48:07;;;;;;;;;;;30.50;33.90;;;;;;4944370;28;45429;-62
2022/08/09 10:53:27;;;;;;;;;;;30.50;34.00;;;;;;4960091;28;45247;-62
2022/08/09 10:56:12;;;;;;;;;;;30.50;33.90;;;;;;4939527;28;45318;-62
2022/08/09 10:58:38;;;;;;;;;;;30.50;34.00;;;;;;4965873;28;46155;-62
2022/08/09 11:01:03;;;;;;;;;;;30.60;34.00;;;;;;4962534;28;44644;-62
2022/08/09 11:03:29;;;;;;;;;;;30.60;34.00;;;;;;4950680;28;45531;-63
2022/08/09 11:06:13;;;;;;;;;;;30.60;34.00;;;;;;4943719;28;46085;-63
2022/08/09 11:08:41;;;;;;;;;;;30.60;34.00;;;;;;4944978;28;47000;-62
2022/08/09 11:11:06;;;;;;;;;;;30.60;34.00;;;;;;4958955;28;45385;-62
2022/08/09 11:13:32;;;;;;;;;;;30.60;34.00;;;;;;4963419;28;45504;-62
2022/08/09 11:16:16;;;;;;;;;;;30.60;33.90;;;;;;4963647;28;44992;-63
2022/08/09 11:18:42;;;;;;;;;;;30.60;34.00;;;;;;4946838;28;46439;-62
2022/08/09 11:21:08;;;;;;;;;;;30.60;33.90;;;;;;4968022;28;45030;-62
2022/08/09 11:23:54;;;;;;;;;;;30.60;33.90;;;;;;4943814;28;45256;-64
2022/08/09 11:26:36;;;;;;;;;;;30.60;33.90;;;;;;4945208;28;47749;-63
2022/08/09 11:29:02;;;;;;;;;;;30.60;33.90;;;;;;4966176;28;45462;-63
2022/08/09 11:31:38;;;;;;;;;;;30.60;33.90;;;;;;4970252;28;44959;-62
2022/08/09 11:34:06;;;;;;;;;;;30.60;33.90;;;;;;4973899;28;45299;-63
2022/08/09 11:36:37;;;;;;;;;;;30.60;33.90;;;;;;4930379;28;45301;-62
2022/08/09 11:39:03;;;;;;;;;;;30.60;33.90;;;;;;4945925;28;46075;-63
2022/08/09 11:41:29;;;;;;;;;;;30.60;33.90;;;;;;4937076;28;45347;-63
2022/08/09 11:43:54;;;;;;;;;;;30.60;33.90;;;;;;4959387;28;45530;-63
2022/08/09 11:46:21;;;;;;;;;;;30.60;33.90;;;;;;4936845;28;44976;-63
2022/08/09 11:48:51;;;;;;;;;;;30.70;33.90;;;;;;4962497;28;46095;-63
2022/08/09 11:51:16;;;;;;;;;;;30.70;33.90;;;;;;4962017;28;45424;-62
2022/08/09 11:53:42;;;;;;;;;;;30.70;33.90;;;;;;4936245;28;45663;-63
2022/08/09 11:56:13;;;;;;;;;;;30.70;33.80;;;;;;4933146;28;45280;-62
2022/08/09 11:58:50;;;;;;;;;;;30.70;33.80;;;;;;4937469;28;45814;-63
2022/08/09 12:01:16;;;;;;;;;;;30.70;33.90;;;;;;4942630;28;44924;-62
2022/08/09 12:03:42;;;;;;;;;;;30.70;33.90;;;;;;4959739;28;45540;-63
2022/08/09 12:06:21;;;;;;;;;;;30.70;33.80;;;;;;4954507;28;46049;-63
2022/08/09 12:08:51;;;;;;;;;;;30.70;33.80;;;;;;4939019;28;45990;-63
2022/08/09 12:11:17;;;;;;;;;;;30.70;33.80;;;;;;4953997;28;45485;-63
2022/08/09 12:13:45;;;;;;;;;;;30.70;33.80;;;;;;4958974;28;45538;-62
2022/08/09 12:16:15;;;;;;;;;;;30.70;33.80;;;;;;4944175;28;45263;-62
2022/08/09 12:18:44;;;;;;;;;;;30.70;33.90;;;;;;4943873;28;46920;-62
2022/08/09 12:21:10;;;;;;;;;;;30.70;34.00;;;;;;4957768;28;45589;-63
2022/08/09 12:23:45;;;;;;;;;;;30.70;34.00;;;;;;4945171;28;45229;-62
2022/08/09 12:26:11;;;;;;;;;;;30.70;34.10;;;;;;4958432;28;44698;-63
2022/08/09 12:28:39;;;;;;;;;;;30.70;34.00;;;;;;4941840;28;45486;-63
2022/08/09 12:31:17;;;;;;;;;;;30.70;33.90;;;;;;4925952;28;45328;-62
2022/08/09 12:33:43;;;;;;;;;;;30.70;33.90;;;;;;4943947;28;44858;-63
2022/08/09 12:36:09;;;;;;;;;;;30.70;34.00;;;;;;4942123;28;45461;-62
2022/08/09 12:38:34;;;;;;;;;;;30.70;34.00;;;;;;4957726;28;46064;-63
2022/08/09 12:41:00;;;;;;;;;;;30.70;33.90;;;;;;4939632;28;45193;-62
2022/08/09 12:43:26;;;;;;;;;;;30.70;33.90;;;;;;4940856;28;45572;-62
2022/08/09 12:45:55;;;;;;;;;;;30.70;33.90;;;;;;4954219;28;45204;-62
2022/08/09 12:48:21;;;;;;;;;;;30.70;33.90;;;;;;4957046;28;46081;-63
2022/08/09 12:50:46;;;;;;;;;;;30.80;33.90;;;;;;4936725;28;44778;-62
2022/08/09 12:53:31;;;;;;;;;;;30.70;33.80;;;;;;4943881;28;45411;-62
2022/08/09 12:56:05;;;;;;;;;;;30.70;33.80;;;;;;4953790;28;45110;-61
2022/08/09 12:58:31;;;;;;;;;;;30.70;33.70;;;;;;4956846;28;46076;-61
2022/08/09 13:00:56;;;;;;;;;;;30.80;33.70;;;;;;4949208;28;45352;-62
2022/08/09 13:03:29;;;;;;;;;;;30.70;33.60;;;;;;4933398;28;45222;-62
2022/08/09 13:05:54;;;;;;;;;;;30.70;33.60;;;;;;4940141;28;46590;-63
2022/08/09 13:08:20;;;;;;;;;;;30.80;33.60;;;;;;4942217;28;46472;-62
2022/08/09 13:10:50;;;;;;;;;;;30.80;33.50;;;;;;4920941;28;45410;-63
2022/08/09 13:13:26;;;;;;;;;;;30.80;33.50;;;;;;4946189;28;45528;-62
2022/08/09 13:15:53;;;;;;;;;;;30.80;33.50;;;;;;4923373;28;45171;-63
2022/08/09 13:18:18;;;;;;;;;;;30.80;33.60;;;;;;4932097;28;45510;-63
2022/08/09 13:20:44;;;;;;;;;;;30.80;33.50;;;;;;4935826;28;45447;-63
2022/08/09 13:23:10;;;;;;;;;;;30.80;33.50;;;;;;4943946;28;45534;-62
2022/08/09 13:25:39;;;;;;;;;;;30.80;33.60;;;;;;4921612;28;45502;-62
2022/08/09 13:28:09;;;;;;;;;;;30.80;33.50;;;;;;4923465;28;45333;-62
2022/08/09 13:30:34;;;;;;;;;;;30.90;33.60;;;;;;4905025;28;45142;-63
2022/08/09 13:33:00;;;;;;;;;;;30.80;33.60;;;;;;4934199;28;45501;-62
2022/08/09 13:35:26;;;;;;;;;;;30.90;33.60;;;;;;4934349;28;45202;-62
2022/08/09 13:37:51;;;;;;;;;;;30.80;33.60;;;;;;4913779;28;46002;-62
2022/08/09 13:40:17;;;;;;;;;;;30.90;33.60;;;;;;4940830;28;45586;-62
2022/08/09 13:42:43;;;;;;;;;;;30.80;33.60;;;;;;4939004;28;44746;-63
2022/08/09 13:45:09;;;;;;;;;;;30.80;33.60;;;;;;4943745;28;45430;-62
2022/08/09 13:47:34;;;;;;;;;;;30.80;33.60;;;;;;4937030;28;45498;-63
2022/08/09 13:50:10;;;;;;;;;;;30.90;33.70;;;;;;4944957;28;45604;-63
2022/08/09 13:52:35;;;;;;;;;;;30.80;33.60;;;;;;4943303;28;45252;-62
2022/08/09 13:55:01;;;;;;;;;;;30.80;33.70;;;;;;4938666;28;45044;-63
2022/08/09 13:57:27;;;;;;;;;;;30.80;33.70;;;;;;4940455;28;45869;-63
2022/08/09 13:59:53;;;;;;;;;;;30.90;33.70;;;;;;4942342;28;44617;-63
2022/08/09 14:02:18;;;;;;;;;;;30.80;33.70;;;;;;4931150;28;44803;-63
2022/08/09 14:04:44;;;;;;;;;;;30.80;33.70;;;;;;4935435;28;45548;-62
2022/08/09 14:07:09;;;;;;;;;;;30.80;33.70;;;;;;4927765;28;47199;-62
2022/08/09 14:09:35;;;;;;;;;;;30.80;33.70;;;;;;4934652;28;45259;-63
2022/08/09 14:12:00;;;;;;;;;;;30.90;33.80;;;;;;4938316;28;45360;-63
2022/08/09 14:14:26;;;;;;;;;;;30.80;33.70;;;;;;4930885;28;44755;-63
2022/08/09 14:16:52;;;;;;;;;;;30.90;33.80;;;;;;4934674;28;45409;-62
2022/08/09 14:19:17;;;;;;;;;;;30.90;33.90;;;;;;4936338;28;45138;-62
2022/08/09 14:21:43;;;;;;;;;;;30.90;33.80;;;;;;4935754;28;45244;-63
2022/08/09 14:24:13;;;;;;;;;;;30.80;33.80;;;;;;4935552;28;45652;-63
2022/08/09 14:26:38;;;;;;;;;;;30.80;33.80;;;;;;4932978;28;46184;-63
2022/08/09 14:29:05;;;;;;;;;;;30.90;33.80;;;;;;4939166;28;45316;-62
2022/08/09 14:31:30;;;;;;;;;;;30.80;33.80;;;;;;4932144;28;45252;-62
2022/08/09 14:33:56;;;;;;;;;;;30.90;33.80;;;;;;4934788;28;45550;-63
2022/08/09 14:36:21;;;;;;;;;;;30.80;33.80;;;;;;4939205;28;45256;-63
2022/08/09 14:38:47;;;;;;;;;;;30.80;33.80;;;;;;4939398;28;45492;-63
2022/08/09 14:41:12;;;;;;;;;;;30.90;33.80;;;;;;4935488;28;45345;-62
2022/08/09 14:43:38;;;;;;;;;;;30.90;33.80;;;;;;4937382;28;45521;-63
2022/08/09 14:46:03;;;;;;;;;;;30.90;33.90;;;;;;4940255;28;45942;-62
2022/08/09 14:48:29;;;;;;;;;;;30.90;33.90;;;;;;4937838;28;45421;-63
2022/08/09 14:50:54;;;;;;;;;;;30.90;33.90;;;;;;4946515;28;45198;-62
2022/08/09 14:53:20;;;;;;;;;;;30.90;33.90;;;;;;4950642;28;45511;-63
2022/08/09 14:55:45;;;;;;;;;;;30.80;33.90;;;;;;4945612;28;46158;-63
2022/08/09 14:58:11;;;;;;;;;;;30.80;34.00;;;;;;4934525;28;45170;-63
2022/08/09 15:00:36;;;;;;;;;;;30.80;34.60;;;;;;4940441;28;45532;-62
2022/08/09 15:03:02;;;;;;;;;;;30.80;34.00;;;;;;4974200;28;45198;-63
2022/08/09 15:05:28;;;;;;;;;;;30.80;34.00;;;;;;4966326;28;44875;-62
2022/08/09 15:07:53;;;;;;;;;;;30.90;34.00;;;;;;4958924;28;45276;-62
2022/08/09 15:10:19;;;;;;;;;;;30.80;33.90;;;;;;4940296;28;45485;-62
2022/08/09 15:12:44;;;;;;;;;;;30.80;33.90;;;;;;4942020;28;45593;-62
2022/08/09 15:15:10;;;;;;;;;;;30.80;33.80;;;;;;4952476;28;45998;-62
2022/08/09 15:17:36;;;;;;;;;;;30.90;33.80;;;;;;4958729;28;45200;-63
2022/08/09 15:20:01;;;;;;;;;;;30.80;33.80;;;;;;4961431;28;44953;-62
2022/08/09 15:22:27;;;;;;;;;;;30.90;33.90;;;;;;4969992;28;46214;-62
2022/08/09 15:24:52;;;;;;;;;;;30.80;33.90;;;;;;4974332;28;44893;-62
2022/08/09 15:27:18;;;;;;;;;;;30.80;33.90;;;;;;4953110;28;45308;-62
2022/08/09 15:29:43;;;;;;;;;;;30.80;33.90;;;;;;4959579;28;45364;-63
2022/08/09 15:32:09;;;;;;;;;;;30.80;33.90;;;;;;4966266;28;45045;-62
2022/08/09 15:34:34;;;;;;;;;;;30.90;34.00;;;;;;4972984;28;45232;-62
2022/08/09 15:37:00;;;;;;;;;;;30.90;34.00;;;;;;4963480;28;45445;-62
2022/08/09 15:39:25;;;;;;;;;;;30.90;34.00;;;;;;4964890;28;44911;-63
2022/08/09 15:41:51;;;;;;;;;;;30.80;33.90;;;;;;4975411;28;45454;-63
2022/08/09 15:44:16;;;;;;;;;;;30.90;34.00;;;;;;4960881;28;46400;-62
2022/08/09 15:46:42;;;;;;;;;;;30.90;34.00;;;;;;4963629;28;45518;-63
2022/08/09 15:49:08;;;;;;;;;;;30.80;33.90;;;;;;4939070;28;45426;-62
2022/08/09 15:51:33;;;;;;;;;;;30.90;34.00;;;;;;4968300;28;45504;-62
2022/08/09 15:53:59;;;;;;;;;;;30.80;34.50;;;;;;4949974;28;45370;-62
2022/08/09 15:56:25;;;;;;;;;;;30.90;34.00;;;;;;4962558;28;45276;-63
2022/08/09 15:58:50;;;;;;;;;;;30.80;33.90;;;;;;4960776;28;45489;-62
2022/08/09 16:01:16;;;;;;;;;;;30.80;33.90;;;;;;4959656;28;45260;-63
2022/08/09 16:03:41;;;;;;;;;;;30.90;34.00;;;;;;4941745;28;46046;-62
2022/08/09 16:06:07;;;;;;;;;;;30.80;34.00;;;;;;4956542;28;44594;-63
2022/08/09 16:08:32;;;;;;;;;;;30.80;34.00;;;;;;4956618;28;45348;-63
2022/08/09 16:10:59;;;;;;;;;;;30.80;34.00;;;;;;4957449;28;45747;-63
2022/08/09 16:13:24;;;;;;;;;;;30.80;34.00;;;;;;4959569;28;45428;-62
2022/08/09 16:15:49;;;;;;;;;;;30.80;34.00;;;;;;4939065;28;45025;-63
2022/08/09 16:18:16;;;;;;;;;;;30.80;34.10;;;;;;4949900;28;45587;-62
2022/08/09 16:20:41;;;;;;;;;;;30.80;34.00;;;;;;4955655;28;45790;-63
2022/08/09 16:23:07;;;;;;;;;;;30.80;34.70;;;;;;4933566;28;46969;-63
2022/08/09 16:25:32;;;;;;;;;;;30.80;34.00;;;;;;4957143;28;45347;-63
2022/08/09 16:27:58;;;;;;;;;;;30.80;34.00;;;;;;4958652;28;45635;-63
2022/08/09 16:30:23;;;;;;;;;;;30.80;34.10;;;;;;4958150;28;45207;-62
2022/08/09 16:33:07;;;;;;;;;;;30.80;34.00;;;;;;4956232;28;46355;-62
2022/08/09 16:35:33;;;;;;;;;;;30.80;34.00;;;;;;4958195;28;45153;-63
2022/08/09 16:37:58;;;;;;;;;;;30.80;34.10;;;;;;4945344;28;44844;-63
2022/08/09 16:40:24;;;;;;;;;;;30.80;34.10;;;;;;4957640;28;45528;-63
2022/08/09 16:42:49;;;;;;;;;;;30.80;34.10;;;;;;4935757;28;48510;-62
2022/08/09 16:45:18;;;;;;;;;;;30.80;34.10;;;;;;4953032;28;45188;-62
2022/08/09 16:47:44;;;;;;;;;;;30.80;34.10;;;;;;4957010;28;45310;-62
2022/08/09 16:50:10;;;;;;;;;;;30.80;34.10;;;;;;4947947;28;45371;-63
2022/08/09 16:52:35;;;;;;;;;;;30.80;34.10;;;;;;4938809;28;46184;-63
2022/08/09 16:55:01;;;;;;;;;;;30.80;34.10;;;;;;4953426;28;46343;-61
2022/08/09 16:57:27;;;;;;;;;;;30.80;34.10;;;;;;4955350;28;45046;-62
2022/08/09 16:59:52;;;;;;;;;;;30.80;34.10;;;;;;4955649;28;45319;-63
2022/08/09 17:02:17;;;;;;;;;;;30.80;34.00;;;;;;4938126;28;45481;-62
2022/08/09 17:04:44;;;;;;;;;;;30.80;34.10;;;;;;4913765;28;45052;-62
2022/08/09 17:07:09;;;;;;;;;;;30.80;34.10;;;;;;4926020;28;45398;-63
2022/08/09 17:09:35;;;;;;;;;;;30.80;34.10;;;;;;4940788;28;45242;-62
2022/08/09 17:12:00;;;;;;;;;;;30.80;34.10;;;;;;4943352;28;45091;-63
2022/08/09 17:14:26;;;;;;;;;;;30.80;34.10;;;;;;4940224;28;45276;-63
2022/08/09 17:16:51;;;;;;;;;;;30.80;34.10;;;;;;4943604;28;45369;-63